createdAt,value
2019-04-29T00:02:34.124Z,3.50
2019-04-29T00:05:40.986Z,3.30
2019-04-29T00:08:47.905Z,3.63
2019-04-29T00:11:54.822Z,3.73
2019-04-29T00:15:35.768Z,3.97
2019-04-29T00:19:01.611Z,3.13
2019-04-29T00:22:08.470Z,3.70
2019-04-29T00:25:15.340Z,4.43
2019-04-29T00:28:22.253Z,3.83
2019-04-29T00:31:29.155Z,2.97
2019-04-29T00:34:35.893Z,4.60
2019-04-29T00:38:01.751Z,3.50
2019-04-29T00:41:45.525Z,3.87
2019-04-29T00:44:52.370Z,3.93
2019-04-29T00:47:59.166Z,3.50
2019-04-29T00:51:06.009Z,3.17
2019-04-29T00:54:19.514Z,3.90
2019-04-29T00:57:26.452Z,3.67
2019-04-29T01:00:38.804Z,3.40
2019-04-29T01:03:45.744Z,4.00
2019-04-29T01:06:52.658Z,3.80
2019-04-29T01:09:59.545Z,3.50
2019-04-29T01:13:06.583Z,3.62
2019-04-29T01:16:13.505Z,4.00
2019-04-29T01:19:20.326Z,4.20
2019-04-29T01:22:27.909Z,2.70
2019-04-29T01:25:34.723Z,3.50
2019-04-29T01:28:49.559Z,2.67
2019-04-29T01:31:58.050Z,3.27
2019-04-29T01:35:05.274Z,3.60
2019-04-29T01:38:12.149Z,3.62
2019-04-29T01:41:21.237Z,3.20
2019-04-29T01:44:29.472Z,3.75
2019-04-29T01:47:36.438Z,3.02
2019-04-29T01:50:43.261Z,3.42
2019-04-29T01:53:50.162Z,3.22
2019-04-29T01:56:57.022Z,3.25
2019-04-29T02:00:04.043Z,3.58
2019-04-29T02:03:10.882Z,3.22
2019-04-29T02:06:17.753Z,4.00
2019-04-29T02:09:43.595Z,2.67
2019-04-29T02:12:50.464Z,3.47
2019-04-29T02:15:57.277Z,3.80
2019-04-29T02:19:04.100Z,4.08
2019-04-29T02:22:23.817Z,4.15
2019-04-29T02:25:34.935Z,2.55
2019-04-29T02:28:41.742Z,3.47
2019-04-29T02:31:48.597Z,3.10
2019-04-29T02:34:55.481Z,3.42
2019-04-29T02:38:03.462Z,3.37
2019-04-29T02:41:17.721Z,3.25
2019-04-29T02:44:24.588Z,3.08
2019-04-29T02:47:31.453Z,4.47
2019-04-29T02:50:38.331Z,2.85
2019-04-29T02:53:45.146Z,4.10
2019-04-29T02:57:03.710Z,3.67
2019-04-29T03:00:35.718Z,3.12
2019-04-29T03:03:49.646Z,4.03
2019-04-29T03:06:56.542Z,2.75
2019-04-29T03:10:03.607Z,4.00
2019-04-29T03:13:10.593Z,3.67
2019-04-29T03:16:18.689Z,4.15
2019-04-29T03:19:31.068Z,3.45
2019-04-29T03:22:38.543Z,4.12
2019-04-29T03:25:45.421Z,3.72
2019-04-29T03:28:52.350Z,4.25
2019-04-29T03:31:59.349Z,4.97
2019-04-29T03:35:06.354Z,2.65
2019-04-29T03:38:13.193Z,3.42
2019-04-29T03:41:20.112Z,3.40
2019-04-29T03:44:26.907Z,3.85
2019-04-29T03:47:33.770Z,4.30
2019-04-29T03:50:40.555Z,3.17
2019-04-29T03:53:47.389Z,3.47
2019-04-29T03:56:54.335Z,3.85
2019-04-29T04:00:01.228Z,5.25
2019-04-29T04:03:18.394Z,4.58
2019-04-29T04:06:34.403Z,4.87
2019-04-29T04:09:41.225Z,3.60
2019-04-29T04:12:48.058Z,5.12
2019-04-29T04:15:54.849Z,4.10
2019-04-29T04:19:09.199Z,3.42
2019-04-29T04:22:16.019Z,4.37
2019-04-29T04:25:22.930Z,4.47
2019-04-29T04:28:30.142Z,4.12
2019-04-29T04:31:36.994Z,3.83
2019-04-29T04:34:43.918Z,4.47
2019-04-29T04:37:50.794Z,4.25
2019-04-29T04:41:02.376Z,4.45
2019-04-29T04:44:09.230Z,4.03
2019-04-29T04:47:16.196Z,4.28
2019-04-29T04:50:23.067Z,3.45
2019-04-29T04:53:29.904Z,4.85
2019-04-29T04:56:36.809Z,3.75
2019-04-29T04:59:43.714Z,4.15
2019-04-29T05:02:50.677Z,3.50
2019-04-29T05:05:57.482Z,4.40
2019-04-29T05:09:06.722Z,3.60
2019-04-29T05:12:14.258Z,5.00
2019-04-29T05:15:21.161Z,4.40
2019-04-29T05:18:27.949Z,4.23
2019-04-29T05:21:34.982Z,4.80
2019-04-29T05:24:41.845Z,5.77
2019-04-29T05:27:48.658Z,4.83
2019-04-29T05:30:55.465Z,4.37
2019-04-29T05:34:02.344Z,4.70
2019-04-29T05:37:17.049Z,4.57
2019-04-29T05:41:01.057Z,4.60
2019-04-29T05:44:19.483Z,4.33
2019-04-29T05:47:30.582Z,3.77
2019-04-29T05:50:47.641Z,4.30
2019-04-29T05:53:55.148Z,3.77
2019-04-29T05:57:02.384Z,4.70
2019-04-29T06:00:09.283Z,4.43
2019-04-29T06:03:16.272Z,4.23
2019-04-29T06:06:23.215Z,4.20
2019-04-29T06:09:30.114Z,4.50
2019-04-29T06:12:36.950Z,4.17
2019-04-29T06:15:43.773Z,4.97
2019-04-29T06:18:59.735Z,4.97
2019-04-29T06:21:59.119Z,4.57
2019-04-29T06:25:06.151Z,4.40
2019-04-29T06:28:13.029Z,4.27
2019-04-29T06:31:19.944Z,4.50
2019-04-29T06:34:26.814Z,7.13
2019-04-29T06:37:33.643Z,4.30
2019-04-29T06:40:40.559Z,3.73
2019-04-29T06:43:47.439Z,4.07
2019-04-29T06:46:55.994Z,4.27
2019-04-29T06:50:02.887Z,4.23
2019-04-29T06:53:09.772Z,4.90
2019-04-29T06:56:16.762Z,4.07
2019-04-29T06:59:23.740Z,3.73
2019-04-29T07:02:30.665Z,4.33
2019-04-29T07:05:37.535Z,4.13
2019-04-29T07:08:44.460Z,4.17
2019-04-29T07:11:51.368Z,4.27
2019-04-29T07:14:58.268Z,4.47
2019-04-29T07:18:05.105Z,4.23
2019-04-29T07:21:13.045Z,4.33
2019-04-29T07:24:20.525Z,4.20
2019-04-29T07:27:27.410Z,4.17
2019-04-29T07:30:39.225Z,4.20
2019-04-29T07:33:42.762Z,4.60
2019-04-29T07:36:53.176Z,4.40
2019-04-29T07:39:58.139Z,5.43
2019-04-29T07:43:07.805Z,4.53
2019-04-29T07:46:25.411Z,4.07
2019-04-29T07:49:32.360Z,4.10
2019-04-29T07:52:39.208Z,5.77
2019-04-29T07:55:46.125Z,4.67
2019-04-29T07:58:53.015Z,4.40
2019-04-29T08:02:01.383Z,4.50
2019-04-29T08:05:09.150Z,4.93
2019-04-29T08:08:16.627Z,5.03
2019-04-29T08:11:24.769Z,5.13
2019-04-29T08:14:33.594Z,6.43
2019-04-29T08:17:40.434Z,5.60
2019-04-29T08:20:47.285Z,10.83
2019-04-29T08:23:54.102Z,12.77
2019-04-29T08:27:00.943Z,6.20
2019-04-29T08:30:11.299Z,7.03
2019-04-29T08:33:16.659Z,7.40
2019-04-29T08:36:23.739Z,7.20
2019-04-29T08:39:31.173Z,6.83
2019-04-29T08:42:43.222Z,5.93
2019-04-29T08:46:00.295Z,6.90
2019-04-29T08:49:07.765Z,7.27
2019-04-29T08:52:14.710Z,6.53
2019-04-29T08:55:21.528Z,6.70
2019-04-29T08:58:28.418Z,7.20
2019-04-29T09:01:35.814Z,6.77
2019-04-29T09:04:53.410Z,6.03
2019-04-29T09:07:52.598Z,6.27
2019-04-29T09:10:59.800Z,7.20
2019-04-29T09:14:06.654Z,6.40
2019-04-29T09:17:20.171Z,6.70
2019-04-29T09:20:21.997Z,7.17
2019-04-29T09:23:31.107Z,5.87
2019-04-29T09:26:45.631Z,6.50
2019-04-29T09:29:54.241Z,7.77
2019-04-29T09:33:01.054Z,6.47
2019-04-29T09:36:09.612Z,5.87
2019-04-29T09:39:16.498Z,6.70
2019-04-29T09:42:33.417Z,6.80
2019-04-29T09:46:00.316Z,7.10
2019-04-29T09:49:07.263Z,6.83
2019-04-29T09:52:14.064Z,6.43
2019-04-29T09:55:21.806Z,6.70
2019-04-29T09:58:28.657Z,6.10
2019-04-29T10:01:43.619Z,6.77
2019-04-29T10:05:09.400Z,6.67
2019-04-29T10:08:16.527Z,5.87
2019-04-29T10:11:23.500Z,6.40
2019-04-29T10:14:30.436Z,5.77
2019-04-29T10:17:59.295Z,5.70
2019-04-29T10:21:10.965Z,6.13
2019-04-29T10:24:17.788Z,5.70
2019-04-29T10:27:24.590Z,6.13
2019-04-29T10:30:32.482Z,4.93
2019-04-29T10:33:39.515Z,5.53
2019-04-29T10:36:46.544Z,4.93
2019-04-29T10:40:18.454Z,5.50
2019-04-29T10:43:44.624Z,5.87
2019-04-29T10:47:19.654Z,5.23
2019-04-29T10:50:32.937Z,5.50
2019-04-29T10:53:39.862Z,6.07
2019-04-29T10:56:47.111Z,5.67
2019-04-29T11:00:01.051Z,5.70
2019-04-29T11:03:07.765Z,5.73
2019-04-29T11:06:16.227Z,5.47
2019-04-29T11:09:46.254Z,5.77
2019-04-29T11:12:51.675Z,5.43
2019-04-29T11:15:58.497Z,7.60
2019-04-29T11:19:05.953Z,5.83
2019-04-29T11:22:14.574Z,6.40
2019-04-29T11:25:40.564Z,6.40
2019-04-29T11:28:51.196Z,6.20
2019-04-29T11:31:58.538Z,6.50
2019-04-29T11:35:16.172Z,6.47
2019-04-29T11:38:23.042Z,8.23
2019-04-29T11:41:31.641Z,7.60
2019-04-29T11:44:38.637Z,7.03
2019-04-29T11:47:45.449Z,7.07
2019-04-29T11:50:59.890Z,7.73
2019-04-29T11:54:08.167Z,8.00
2019-04-29T11:57:24.592Z,10.90
2019-04-29T12:00:56.127Z,8.90
2019-04-29T12:04:06.974Z,9.23
2019-04-29T12:07:13.804Z,9.73
2019-04-29T12:10:20.681Z,8.67
2019-04-29T12:13:37.234Z,9.43
2019-04-29T12:16:48.294Z,10.47
2019-04-29T12:19:57.557Z,10.10
2019-04-29T12:23:04.409Z,11.07
2019-04-29T12:26:12.813Z,10.57
2019-04-29T12:29:19.766Z,9.60
2019-04-29T12:32:48.483Z,10.13
2019-04-29T12:36:03.252Z,11.13
2019-04-29T12:39:43.038Z,9.43
2019-04-29T12:42:57.695Z,10.17
2019-04-29T12:46:26.562Z,10.80
2019-04-29T12:49:33.424Z,11.23
2019-04-29T12:52:40.248Z,13.37
2019-04-29T12:55:52.987Z,11.47
2019-04-29T12:58:59.678Z,11.03
2019-04-29T13:02:19.866Z,11.00
2019-04-29T13:05:32.948Z,10.93
2019-04-29T13:08:51.504Z,10.10
2019-04-29T13:12:17.697Z,10.93
2019-04-29T13:15:13.858Z,10.43
2019-04-29T13:18:38.102Z,10.53
2019-04-29T13:21:44.948Z,10.33
2019-04-29T13:24:51.782Z,10.77
2019-04-29T13:28:03.908Z,7.37
2019-04-29T13:31:07.143Z,12.13
2019-04-29T13:34:24.110Z,10.87
2019-04-29T13:37:27.134Z,8.90
2019-04-29T13:40:37.799Z,9.87
2019-04-29T13:43:42.670Z,9.70
2019-04-29T13:47:13.246Z,7.47
2019-04-29T13:50:38.720Z,8.20
2019-04-29T13:53:33.144Z,9.30
2019-04-29T13:56:55.723Z,7.53
2019-04-29T14:00:10.058Z,7.17
2019-04-29T14:03:28.262Z,8.33
2019-04-29T14:06:36.690Z,7.33
2019-04-29T14:09:43.625Z,8.53
2019-04-29T14:13:05.227Z,7.00
2019-04-29T14:15:59.034Z,7.53
2019-04-29T14:19:08.560Z,6.13
2019-04-29T14:22:21.924Z,7.07
2019-04-29T14:25:22.941Z,5.70
2019-04-29T14:28:29.780Z,5.90
2019-04-29T14:31:37.202Z,5.33
2019-04-29T14:34:53.368Z,5.33
2019-04-29T14:38:04.879Z,5.90
2019-04-29T14:41:08.735Z,5.23
2019-04-29T14:44:40.333Z,5.37
2019-04-29T14:48:08.983Z,5.27
2019-04-29T14:51:15.847Z,5.40
2019-04-29T14:54:22.689Z,4.83
2019-04-29T14:57:29.494Z,3.77
2019-04-29T15:00:53.956Z,3.53
2019-04-29T15:04:18.342Z,3.87
2019-04-29T15:07:19.998Z,4.10
2019-04-29T15:10:31.214Z,9.17
2019-04-29T15:13:35.485Z,3.53
2019-04-29T15:16:48.831Z,3.43
2019-04-29T15:20:14.700Z,3.90
2019-04-29T15:23:28.305Z,3.33
2019-04-29T15:26:30.100Z,3.97
2019-04-29T15:29:36.958Z,5.17
2019-04-29T15:32:43.846Z,4.47
2019-04-29T15:35:50.656Z,5.33
2019-04-29T15:39:08.844Z,4.00
2019-04-29T15:42:07.002Z,4.47
2019-04-29T15:45:15.054Z,4.47
2019-04-29T15:48:22.084Z,5.30
2019-04-29T15:51:28.895Z,5.37
2019-04-29T15:54:35.697Z,5.50
2019-04-29T15:57:49.597Z,4.77
2019-04-29T16:00:51.031Z,5.47
2019-04-29T16:03:59.653Z,5.20
2019-04-29T16:07:23.915Z,6.07
2019-04-29T16:10:51.753Z,4.90
2019-04-29T16:14:08.722Z,5.87
2019-04-29T16:17:06.837Z,4.50
2019-04-29T16:20:14.130Z,5.60
2019-04-29T16:23:21.017Z,6.63
2019-04-29T16:26:30.342Z,5.67
2019-04-29T16:29:36.421Z,5.43
2019-04-29T16:32:44.077Z,6.47
2019-04-29T16:35:50.927Z,6.23
2019-04-29T16:38:57.782Z,5.50
2019-04-29T16:42:18.814Z,5.30
2019-04-29T16:45:34.056Z,5.60
2019-04-29T16:48:41.186Z,6.37
2019-04-29T16:51:53.506Z,7.27
2019-04-29T16:54:59.157Z,6.17
2019-04-29T16:58:07.723Z,6.80
2019-04-29T17:01:14.719Z,7.53
2019-04-29T17:04:21.628Z,5.53
2019-04-29T17:07:28.444Z,7.20
2019-04-29T17:10:49.030Z,5.67
2019-04-29T17:13:56.093Z,6.20
2019-04-29T17:17:04.505Z,5.57
2019-04-29T17:20:11.481Z,5.90
2019-04-29T17:23:24.247Z,6.80
2019-04-29T17:26:33.338Z,6.20
2019-04-29T17:30:04.106Z,5.47
2019-04-29T17:33:25.981Z,6.07
2019-04-29T17:36:25.643Z,6.87
2019-04-29T17:39:32.131Z,5.90
2019-04-29T17:42:40.686Z,7.10
2019-04-29T17:45:59.132Z,6.27
2019-04-29T17:49:33.774Z,6.40
2019-04-29T17:52:40.666Z,6.43
2019-04-29T17:55:56.238Z,6.20
2019-04-29T17:59:15.821Z,6.53
2019-04-29T18:02:47.118Z,6.27
2019-04-29T18:06:02.531Z,7.93
2019-04-29T18:09:28.540Z,6.63
2019-04-29T18:12:40.948Z,8.03
2019-04-29T18:15:58.636Z,7.33
2019-04-29T18:19:02.368Z,8.03
2019-04-29T18:22:26.523Z,6.73
2019-04-29T18:25:52.418Z,7.03
2019-04-29T18:29:03.623Z,7.23
2019-04-29T18:32:08.744Z,8.67
2019-04-29T18:35:17.015Z,6.37
2019-04-29T18:38:26.266Z,8.77
2019-04-29T18:41:32.670Z,6.30
2019-04-29T18:44:42.094Z,7.47
2019-04-29T18:47:48.114Z,6.93
2019-04-29T18:50:56.894Z,8.53
2019-04-29T18:54:03.479Z,9.13
2019-04-29T18:57:10.389Z,9.83
2019-04-29T19:00:20.061Z,9.70
2019-04-29T19:03:39.274Z,10.43
2019-04-29T19:06:46.118Z,10.30
2019-04-29T19:09:52.975Z,10.30
2019-04-29T19:13:04.583Z,11.10
2019-04-29T19:16:10.397Z,11.17
2019-04-29T19:19:18.785Z,11.77
2019-04-29T19:22:25.929Z,12.53
2019-04-29T19:25:32.855Z,12.83
2019-04-29T19:28:39.765Z,13.27
2019-04-29T19:31:49.669Z,13.83
2019-04-29T19:34:58.239Z,13.47
2019-04-29T19:38:05.115Z,12.70
2019-04-29T19:41:16.221Z,13.50
2019-04-29T19:44:20.853Z,13.73
2019-04-29T19:47:28.134Z,14.17
2019-04-29T19:50:35.846Z,16.63
2019-04-29T19:53:48.884Z,15.93
2019-04-29T19:56:55.529Z,15.00
2019-04-29T20:00:00.461Z,18.27
2019-04-29T20:03:20.208Z,14.63
2019-04-29T20:06:24.900Z,15.90
2019-04-29T20:09:28.699Z,14.70
2019-04-29T20:12:36.632Z,14.90
2019-04-29T20:16:10.117Z,15.37
2019-04-29T20:19:20.248Z,16.30
2019-04-29T20:22:21.833Z,15.90
2019-04-29T20:25:30.852Z,16.07
2019-04-29T20:28:37.389Z,16.93
2019-04-29T20:31:50.217Z,13.43
2019-04-29T20:34:56.790Z,17.13
2019-04-29T20:38:01.514Z,16.03
2019-04-29T20:41:08.626Z,16.00
2019-04-29T20:44:17.054Z,14.73
2019-04-29T20:47:37.049Z,16.03
2019-04-29T20:50:32.766Z,16.77
2019-04-29T20:53:47.534Z,15.73
2019-04-29T20:57:02.812Z,16.47
2019-04-29T21:00:03.160Z,17.50
2019-04-29T21:03:11.589Z,17.40
2019-04-29T21:06:18.607Z,19.33
2019-04-29T21:09:27.545Z,17.10
2019-04-29T21:12:42.405Z,15.93
2019-04-29T21:15:55.616Z,16.20
2019-04-29T21:19:08.739Z,16.40
2019-04-29T21:22:22.009Z,19.97
2019-04-29T21:25:24.717Z,16.63
2019-04-29T21:28:38.101Z,17.77
2019-04-29T21:31:41.502Z,16.50
2019-04-29T21:34:55.560Z,15.53
2019-04-29T21:38:22.239Z,15.77
2019-04-29T21:41:39.321Z,16.17
2019-04-29T21:44:46.231Z,16.30
2019-04-29T21:47:54.575Z,15.87
2019-04-29T21:51:01.581Z,15.57
2019-04-29T21:54:09.688Z,16.73
2019-04-29T21:57:23.447Z,16.77
2019-04-29T22:00:26.370Z,16.57
2019-04-29T22:03:33.307Z,18.17
2019-04-29T22:10:52.516Z,17.20
2019-04-29T22:13:59.329Z,15.90
2019-04-29T22:48:58.928Z,16.70
2019-04-29T22:52:06.069Z,18.77
2019-04-29T22:55:15.457Z,17.77
2019-04-29T22:58:22.275Z,17.67
2019-04-29T23:01:29.289Z,19.33
2019-04-29T23:04:36.310Z,16.87
2019-04-29T23:07:45.477Z,18.10
2019-04-29T23:10:51.940Z,17.03
2019-04-29T23:14:01.793Z,19.07
2019-04-29T23:17:12.075Z,17.07
2019-04-29T23:20:38.228Z,19.57
2019-04-29T23:23:48.404Z,16.67
2019-04-29T23:26:55.410Z,19.70
2019-04-29T23:30:02.382Z,18.13
2019-04-29T23:33:09.333Z,21.30
2019-04-29T23:36:16.345Z,19.87
2019-04-29T23:39:24.852Z,19.20
2019-04-29T23:42:31.935Z,17.10
2019-04-29T23:45:38.957Z,20.57
2019-04-29T23:48:46.749Z,17.03
2019-04-29T23:51:53.869Z,22.60
2019-04-29T23:55:00.826Z,18.23
2019-04-29T23:58:32.726Z,18.60
